KLLJ

Challis Airport

Challis, Idaho, USA
METAR KLLJ 221455Z AUTO VRB03KT 10SM SCT095 16/10 A3002 RMK AO2 SLP115 T01610100 53003
Observed Flight Rules
May-22 @ 14:55 UTC (53 minutes ago) Visual Flight Rules
Wind Visibility Clouds
Variable at 3 knots 10 miles
  • Scattered at 9,500' AGL
Temperatures Readings
Current 16°C / 61°F
Dewpoint 10°C / 50°F
Humidity 68%
Altimeter 30.02" Hg
Pressure 1011.5 hPa
Elevation 1536
METAR KLLJ 221455Z AUTO VRB03KT 10SM SCT095 16/10 A3002 RMK AO2 SLP115 T01610100 53003
Observed Flight Rules
May-22 @ 14:55 UTC
(53 minutes ago)
VFR
Wind Visibility
Variable at 3 knots 10 miles
Clouds
  • Scattered at 9,500' AGL
Temperature Dewpoint
16°C / 61°F 10°C / 50°F
Humidity Altimeter Pressure
68% 30.02" Hg 1011.5 hPa